createdAt,value
2023-02-22T00:01:23.067Z,8.63
2023-02-22T00:03:52.139Z,8.50
2023-02-22T00:06:25.807Z,11.30
2023-02-22T00:08:53.831Z,9.30
2023-02-22T00:11:21.762Z,9.10
2023-02-22T00:13:50.571Z,8.80
2023-02-22T00:16:22.181Z,10.32
2023-02-22T00:18:50.223Z,7.60
2023-02-22T00:21:19.481Z,7.93
2023-02-22T00:23:49.221Z,9.18
2023-02-22T00:26:21.631Z,10.45
2023-02-22T00:28:52.033Z,11.60
2023-02-22T00:31:20.301Z,8.38
2023-02-22T00:33:47.587Z,10.57
2023-02-22T00:36:15.479Z,10.95
2023-02-22T00:38:45.812Z,10.63
2023-02-22T00:41:15.827Z,11.68
2023-02-22T00:43:44.378Z,9.43
2023-02-22T00:46:13.947Z,10.85
2023-02-22T00:48:40.927Z,11.05
2023-02-22T00:51:08.082Z,13.05
2023-02-22T00:53:34.942Z,14.52
2023-02-22T00:56:01.854Z,11.10
2023-02-22T00:58:28.798Z,12.00
2023-02-22T01:00:55.669Z,12.75
2023-02-22T01:03:26.147Z,12.05
2023-02-22T01:05:54.662Z,9.57
2023-02-22T01:08:21.675Z,12.20
2023-02-22T01:10:48.573Z,14.18
2023-02-22T01:13:22.137Z,12.52
2023-02-22T01:15:49.221Z,13.07
2023-02-22T01:18:19.716Z,13.23
2023-02-22T01:20:48.109Z,12.70
2023-02-22T01:23:17.632Z,14.15
2023-02-22T01:25:45.338Z,10.77
2023-02-22T01:28:14.004Z,10.68
2023-02-22T01:30:41.202Z,11.98
2023-02-22T01:33:09.808Z,10.88
2023-02-22T01:35:40.857Z,11.23
2023-02-22T01:38:11.503Z,11.35
2023-02-22T01:40:44.662Z,9.70
2023-02-22T01:43:29.552Z,10.77
2023-02-22T01:46:06.124Z,9.65
2023-02-22T01:48:55.045Z,10.73
2023-02-22T01:51:29.042Z,16.52
2023-02-22T01:54:10.231Z,13.23
2023-02-22T01:56:46.653Z,13.68
2023-02-22T01:59:17.072Z,13.13
2023-02-22T02:01:44.881Z,12.00
2023-02-22T02:04:20.566Z,13.20
2023-02-22T02:06:50.520Z,13.00
2023-02-22T02:09:32.370Z,11.50
2023-02-22T02:12:07.342Z,14.63
2023-02-22T02:14:34.441Z,11.38
2023-02-22T02:17:03.160Z,10.80
2023-02-22T02:20:11.843Z,12.82
2023-02-22T02:23:01.179Z,12.90
2023-02-22T02:26:10.223Z,12.27
2023-02-22T02:28:59.425Z,10.95
2023-02-22T02:31:53.969Z,11.95
2023-02-22T02:35:06.273Z,10.70
2023-02-22T02:38:11.445Z,12.27
2023-02-22T02:41:18.832Z,12.48
2023-02-22T02:43:58.533Z,11.45
2023-02-22T02:47:01.730Z,12.70
2023-02-22T02:49:55.949Z,11.52
2023-02-22T02:52:27.385Z,11.88
2023-02-22T02:54:57.572Z,11.60
2023-02-22T02:57:26.707Z,12.43
2023-02-22T02:59:54.684Z,12.55
2023-02-22T03:03:04.563Z,15.98
2023-02-22T03:05:55.865Z,13.82
2023-02-22T03:08:52.764Z,13.27
2023-02-22T03:11:31.713Z,16.35
2023-02-22T03:14:24.664Z,14.32
2023-02-22T03:17:33.899Z,12.23
2023-02-22T03:20:37.182Z,18.00
2023-02-22T03:23:15.821Z,14.77
2023-02-22T03:25:53.233Z,14.57
2023-02-22T03:28:26.568Z,13.82
2023-02-22T03:31:10.891Z,13.57
2023-02-22T03:33:46.021Z,14.13
2023-02-22T03:36:25.006Z,11.20
2023-02-22T03:38:55.678Z,11.25
2023-02-22T03:41:25.933Z,13.75
2023-02-22T03:44:24.585Z,13.15
2023-02-22T03:46:56.820Z,10.95
2023-02-22T03:49:40.802Z,12.57
2023-02-22T03:52:12.828Z,11.73
2023-02-22T03:54:41.713Z,12.17
2023-02-22T03:57:21.336Z,14.23
2023-02-22T03:59:48.932Z,15.82
2023-02-22T04:02:18.982Z,13.00
2023-02-22T04:04:47.687Z,15.68
2023-02-22T04:07:16.721Z,18.33
2023-02-22T04:09:43.706Z,15.80
2023-02-22T04:12:10.612Z,16.35
2023-02-22T04:14:39.755Z,15.90
2023-02-22T04:17:06.621Z,16.50
2023-02-22T04:19:33.493Z,16.45
2023-02-22T04:22:01.628Z,20.75
2023-02-22T04:24:30.600Z,17.95
2023-02-22T04:26:57.632Z,19.55
2023-02-22T04:29:24.482Z,20.48
2023-02-22T04:31:52.662Z,21.33
2023-02-22T04:34:19.529Z,20.08
2023-02-22T04:36:46.402Z,21.23
2023-02-22T04:39:13.374Z,23.75
2023-02-22T04:41:40.615Z,27.15
2023-02-22T04:44:07.659Z,28.70
2023-02-22T04:46:34.741Z,28.77
2023-02-22T04:49:01.591Z,25.58
2023-02-22T04:51:28.459Z,25.90
2023-02-22T04:53:55.328Z,22.38
2023-02-22T04:56:22.368Z,22.27
2023-02-22T04:58:49.255Z,19.23
2023-02-22T05:01:17.174Z,19.00
2023-02-22T05:03:44.208Z,18.52
2023-02-22T05:06:12.418Z,19.45
2023-02-22T05:08:39.288Z,18.58
2023-02-22T05:11:06.493Z,17.23
2023-02-22T05:13:33.454Z,18.58
2023-02-22T05:16:00.352Z,17.30
2023-02-22T05:18:27.961Z,15.32
2023-02-22T05:20:54.790Z,16.48
2023-02-22T05:23:21.630Z,18.45
2023-02-22T05:25:48.441Z,19.50
2023-02-22T05:28:16.931Z,16.05
2023-02-22T05:30:43.982Z,16.45
2023-02-22T05:33:10.997Z,17.52
2023-02-22T05:50:14.023Z,19.23
2023-02-22T05:52:42.089Z,17.27
2023-02-22T05:55:11.673Z,16.05
2023-02-22T05:57:38.760Z,15.30
2023-02-22T06:00:08.327Z,18.85
2023-02-22T06:02:35.608Z,23.55
2023-02-22T06:05:03.188Z,29.85
2023-02-22T06:07:30.092Z,26.63
2023-02-22T06:09:57.182Z,21.23
2023-02-22T06:12:24.220Z,23.42
2023-02-22T06:14:51.477Z,24.60
2023-02-22T06:17:20.536Z,18.25
2023-02-22T06:19:47.724Z,18.40
2023-02-22T06:22:20.193Z,15.55
2023-02-22T06:24:47.249Z,19.13
2023-02-22T06:27:14.610Z,18.90
2023-02-22T06:29:46.954Z,21.75
2023-02-22T06:32:15.219Z,22.70
2023-02-22T06:34:42.295Z,31.10
2023-02-22T06:37:09.612Z,30.80
2023-02-22T06:39:36.620Z,28.92
2023-02-22T06:42:03.787Z,27.60
2023-02-22T06:44:30.916Z,24.42
2023-02-22T06:46:59.658Z,27.98
2023-02-22T06:49:28.278Z,24.95
2023-02-22T06:51:55.846Z,24.35
2023-02-22T06:54:23.701Z,25.15
2023-02-22T06:56:50.759Z,25.48
2023-02-22T06:59:17.910Z,29.48
2023-02-22T07:01:45.645Z,32.20
2023-02-22T07:04:12.725Z,31.90
2023-02-22T07:06:39.761Z,29.02
2023-02-22T07:09:06.816Z,26.75
2023-02-22T07:11:33.870Z,28.00
2023-02-22T07:14:00.936Z,26.77
2023-02-22T07:16:28.055Z,27.38
2023-02-22T07:18:55.015Z,27.08
2023-02-22T07:21:22.066Z,26.58
2023-02-22T07:23:57.202Z,27.20
2023-02-22T07:26:25.173Z,33.97
2023-02-22T07:28:52.206Z,30.17
2023-02-22T07:31:19.463Z,30.02
2023-02-22T07:33:47.903Z,35.25
2023-02-22T07:36:17.889Z,38.03
2023-02-22T07:38:46.222Z,33.22
2023-02-22T07:41:13.567Z,33.45
2023-02-22T07:43:40.631Z,28.77
2023-02-22T07:46:07.941Z,26.23
2023-02-22T07:48:34.919Z,32.05
2023-02-22T07:51:01.931Z,29.23
2023-02-22T07:53:33.565Z,28.92
2023-02-22T07:56:05.259Z,31.02
2023-02-22T07:58:33.213Z,32.63
2023-02-22T08:01:02.267Z,32.88
2023-02-22T08:03:37.905Z,29.08
2023-02-22T08:06:07.823Z,25.52
2023-02-22T08:08:35.007Z,23.08
2023-02-22T08:11:02.166Z,26.58
2023-02-22T08:13:29.678Z,23.75
2023-02-22T08:15:57.033Z,25.05
2023-02-22T08:18:25.791Z,27.58
2023-02-22T08:20:54.773Z,33.13
2023-02-22T08:23:25.489Z,32.55
2023-02-22T08:25:53.376Z,34.75
2023-02-22T08:28:24.295Z,33.35
2023-02-22T08:30:52.119Z,34.10
2023-02-22T08:33:20.236Z,39.83
2023-02-22T08:35:52.491Z,37.78
2023-02-22T08:38:28.492Z,45.63
2023-02-22T08:40:56.571Z,47.75
2023-02-22T08:43:24.218Z,47.88
2023-02-22T08:45:52.465Z,47.67
2023-02-22T08:48:20.742Z,54.63
2023-02-22T08:50:47.810Z,50.15
2023-02-22T08:53:16.453Z,56.03
2023-02-22T08:55:44.669Z,50.67
2023-02-22T08:58:13.200Z,42.58
2023-02-22T09:00:42.470Z,43.80
2023-02-22T09:03:14.025Z,39.72
2023-02-22T09:05:44.861Z,38.90
2023-02-22T09:08:12.585Z,37.30
2023-02-22T09:10:40.800Z,47.45
2023-02-22T09:13:08.314Z,43.83
2023-02-22T09:15:39.732Z,48.33
2023-02-22T09:18:11.619Z,49.78
2023-02-22T09:20:38.848Z,54.78
2023-02-22T09:23:09.918Z,32.88
2023-02-22T09:25:38.807Z,44.92
2023-02-22T09:28:06.217Z,40.03
2023-02-22T09:30:36.241Z,34.92
2023-02-22T09:33:11.507Z,30.23
2023-02-22T09:35:46.361Z,30.35
2023-02-22T09:38:17.857Z,26.65
2023-02-22T09:41:34.584Z,22.42
2023-02-22T09:44:18.140Z,18.20
2023-02-22T09:46:47.360Z,16.90
2023-02-22T09:49:22.164Z,16.13
2023-02-22T09:52:21.067Z,22.67
2023-02-22T09:55:00.639Z,17.42
2023-02-22T09:57:38.018Z,13.63
2023-02-22T10:00:16.931Z,17.38
2023-02-22T10:03:11.505Z,18.00
2023-02-22T10:05:43.807Z,22.00
2023-02-22T10:08:19.064Z,18.08
2023-02-22T10:10:57.749Z,17.75
2023-02-22T10:13:52.010Z,18.98
2023-02-22T10:16:37.048Z,13.65
2023-02-22T10:19:11.129Z,15.05
2023-02-22T10:22:00.791Z,15.32
2023-02-22T10:25:13.984Z,13.55
2023-02-22T10:27:52.111Z,11.70
2023-02-22T10:30:38.984Z,11.25
2023-02-22T10:33:20.789Z,13.38
2023-02-22T10:35:49.022Z,10.55
2023-02-22T10:38:24.857Z,13.27
2023-02-22T10:41:31.963Z,12.50
2023-02-22T10:43:59.721Z,12.52
2023-02-22T10:46:30.676Z,9.93
2023-02-22T10:49:07.465Z,11.85
2023-02-22T10:51:35.217Z,11.80
2023-02-22T10:54:20.046Z,11.13
2023-02-22T10:56:54.986Z,11.23
2023-02-22T10:59:36.185Z,12.40
2023-02-22T11:02:30.434Z,8.68
2023-02-22T11:05:01.042Z,10.68
2023-02-22T11:07:37.241Z,9.90
2023-02-22T11:10:10.718Z,9.32
2023-02-22T11:12:47.864Z,9.32
2023-02-22T11:15:17.721Z,9.80
2023-02-22T11:17:48.528Z,11.45
2023-02-22T11:20:28.976Z,10.52
2023-02-22T11:23:01.264Z,10.00
2023-02-22T11:25:36.772Z,9.25
2023-02-22T11:28:15.103Z,7.22
2023-02-22T11:30:44.587Z,10.68
2023-02-22T11:33:25.998Z,8.05
2023-02-22T11:35:54.765Z,7.80
2023-02-22T11:38:29.137Z,9.50
2023-02-22T11:41:17.883Z,8.00
2023-02-22T11:43:48.897Z,8.55
2023-02-22T11:46:34.947Z,9.27
2023-02-22T11:49:09.172Z,8.45
2023-02-22T11:52:13.405Z,7.78
2023-02-22T11:55:01.915Z,7.78
2023-02-22T11:57:55.861Z,16.95
2023-02-22T12:00:44.907Z,10.82
2023-02-22T12:03:28.937Z,10.20
2023-02-22T12:06:46.379Z,8.93
2023-02-22T12:09:43.077Z,8.77
2023-02-22T12:12:43.973Z,8.13
2023-02-22T12:15:29.723Z,5.13
2023-02-22T12:18:05.323Z,6.68
2023-02-22T12:21:02.158Z,7.78
2023-02-22T12:24:07.295Z,8.30
2023-02-22T12:26:52.565Z,8.23
2023-02-22T12:30:14.573Z,8.18
2023-02-22T12:32:48.706Z,6.63
2023-02-22T12:35:42.726Z,8.05
2023-02-22T12:38:33.958Z,8.55
2023-02-22T12:41:38.433Z,7.85
2023-02-22T12:44:21.465Z,6.90
2023-02-22T12:46:53.490Z,9.00
2023-02-22T12:49:47.544Z,7.32
2023-02-22T12:52:40.581Z,6.43
2023-02-22T12:55:21.887Z,9.88
2023-02-22T12:58:06.950Z,7.50
2023-02-22T13:00:50.906Z,5.40
2023-02-22T13:03:39.431Z,5.18
2023-02-22T13:06:36.412Z,4.70
2023-02-22T13:09:37.572Z,4.43
2023-02-22T13:12:33.453Z,4.03
2023-02-22T13:15:41.598Z,8.75
2023-02-22T13:18:50.724Z,4.43
2023-02-22T13:21:47.948Z,4.05
2023-02-22T13:24:55.005Z,3.55
2023-02-22T13:27:55.695Z,4.70
2023-02-22T13:30:38.358Z,5.47
2023-02-22T13:33:36.653Z,5.43
2023-02-22T13:36:38.746Z,5.45
2023-02-22T13:39:34.502Z,4.65
2023-02-22T13:42:29.006Z,5.43
2023-02-22T13:45:48.945Z,5.63
2023-02-22T13:48:33.028Z,6.70
2023-02-22T13:51:33.228Z,6.47
2023-02-22T13:54:15.441Z,6.35
2023-02-22T13:56:47.557Z,5.32
2023-02-22T13:59:37.716Z,6.15
2023-02-22T14:02:08.185Z,8.65
2023-02-22T14:04:43.072Z,13.70
2023-02-22T14:07:22.147Z,14.50
2023-02-22T14:09:53.137Z,10.63
2023-02-22T14:12:35.906Z,8.88
2023-02-22T14:15:31.004Z,8.30
2023-02-22T14:18:02.012Z,10.77
2023-02-22T14:20:38.314Z,7.88
2023-02-22T14:23:40.907Z,9.73
2023-02-22T14:26:30.865Z,9.00
2023-02-22T14:29:09.711Z,10.77
2023-02-22T14:31:50.311Z,8.30
2023-02-22T14:34:22.674Z,7.55
2023-02-22T14:37:09.563Z,9.73
2023-02-22T14:40:18.409Z,10.70
2023-02-22T14:43:06.631Z,9.15
2023-02-22T14:45:43.626Z,10.27
2023-02-22T14:48:25.180Z,8.95
2023-02-22T14:51:11.770Z,8.07
2023-02-22T14:54:28.832Z,8.90
2023-02-22T14:57:32.567Z,8.75
2023-02-22T15:02:57.551Z,8.63
2023-02-22T15:05:33.656Z,7.55
2023-02-22T15:08:06.184Z,7.90
2023-02-22T15:10:49.028Z,7.38
2023-02-22T15:13:27.812Z,9.23
2023-02-22T15:16:16.823Z,9.45
2023-02-22T15:18:48.645Z,11.77
2023-02-22T15:21:25.295Z,10.88
2023-02-22T15:24:07.738Z,8.88
2023-02-22T15:26:51.934Z,11.20
2023-02-22T15:29:40.981Z,11.45
2023-02-22T15:32:30.293Z,8.98
2023-02-22T15:35:27.063Z,9.27
2023-02-22T15:38:28.730Z,11.68
2023-02-22T15:41:05.185Z,14.25
2023-02-22T15:43:33.657Z,14.88
2023-02-22T15:46:01.891Z,12.63
2023-02-22T15:48:32.493Z,10.85
2023-02-22T15:51:15.668Z,11.85
2023-02-22T15:53:46.967Z,11.10
2023-02-22T15:56:31.180Z,13.95
2023-02-22T15:59:16.422Z,12.32
2023-02-22T16:01:47.503Z,10.05
2023-02-22T16:04:23.791Z,13.60
2023-02-22T16:07:02.928Z,13.18
2023-02-22T16:09:35.979Z,13.38
2023-02-22T16:12:31.852Z,13.18
2023-02-22T16:15:00.803Z,13.02
2023-02-22T16:17:37.749Z,18.02
2023-02-22T16:20:17.848Z,20.23
2023-02-22T16:22:49.539Z,22.75
2023-02-22T16:25:19.687Z,22.40
2023-02-22T16:27:58.043Z,22.05
2023-02-22T16:30:29.839Z,20.80
2023-02-22T16:32:57.989Z,17.95
2023-02-22T16:35:30.102Z,15.82
2023-02-22T16:38:01.610Z,10.80
2023-02-22T16:40:47.228Z,15.02
2023-02-22T16:43:29.571Z,16.65
2023-02-22T16:45:57.272Z,9.93
2023-02-22T16:48:30.937Z,13.30
2023-02-22T16:51:06.464Z,13.07
2023-02-22T16:53:33.910Z,13.13
2023-02-22T16:56:09.627Z,15.48
2023-02-22T16:58:40.934Z,16.00
2023-02-22T17:01:08.505Z,22.08
2023-02-22T17:03:36.336Z,18.63
2023-02-22T17:06:03.585Z,19.00
2023-02-22T17:08:31.371Z,18.25
2023-02-22T17:11:00.620Z,18.52
2023-02-22T17:13:29.345Z,20.50
2023-02-22T17:15:58.221Z,21.13
2023-02-22T17:18:28.857Z,20.77
2023-02-22T17:20:56.943Z,23.02
2023-02-22T17:23:24.917Z,24.88
2023-02-22T17:26:04.688Z,26.08
2023-02-22T17:28:32.273Z,27.15
2023-02-22T17:31:01.978Z,26.45
2023-02-22T17:33:34.174Z,28.63
2023-02-22T17:36:03.965Z,28.77
2023-02-22T17:38:31.556Z,24.00
2023-02-22T17:41:01.470Z,30.90
2023-02-22T17:43:29.716Z,40.92
2023-02-22T17:45:57.628Z,30.80
2023-02-22T17:48:25.679Z,41.35
2023-02-22T17:50:54.048Z,44.35
2023-02-22T17:53:22.914Z,33.95
2023-02-22T17:55:50.890Z,30.38
2023-02-22T17:58:18.493Z,24.90
2023-02-22T18:00:50.151Z,25.10
2023-02-22T18:03:24.932Z,26.10
2023-02-22T18:06:00.030Z,34.25
2023-02-22T18:08:31.270Z,28.23
2023-02-22T18:10:58.521Z,28.52
2023-02-22T18:13:29.621Z,28.80
2023-02-22T18:16:00.230Z,27.58
2023-02-22T18:18:27.957Z,27.42
2023-02-22T18:20:59.485Z,25.98
2023-02-22T18:23:29.903Z,26.00
2023-02-22T18:26:10.547Z,22.73
2023-02-22T18:28:39.385Z,21.90
2023-02-22T18:31:09.321Z,24.42
2023-02-22T18:33:37.306Z,21.10
2023-02-22T18:36:04.838Z,19.10
2023-02-22T18:38:32.692Z,23.67
2023-02-22T18:41:03.635Z,21.08
2023-02-22T18:43:34.170Z,20.20
2023-02-22T18:46:19.548Z,21.73
2023-02-22T18:48:49.652Z,22.73
2023-02-22T18:51:17.663Z,23.38
2023-02-22T18:53:47.666Z,24.23
2023-02-22T18:56:21.886Z,19.77
2023-02-22T18:58:58.665Z,20.48
2023-02-22T19:01:27.412Z,21.08
2023-02-22T19:03:55.612Z,26.63
2023-02-22T19:06:23.169Z,26.05
2023-02-22T19:08:51.442Z,25.35
2023-02-22T19:11:24.465Z,33.90
2023-02-22T19:16:23.681Z,39.42
2023-02-22T19:18:53.025Z,52.03
2023-02-22T19:21:22.523Z,43.72
2023-02-22T19:23:50.360Z,43.15
2023-02-22T19:26:24.263Z,31.17
2023-02-22T19:28:54.478Z,32.25
2023-02-22T19:31:31.972Z,28.35
2023-02-22T19:34:11.152Z,27.55
2023-02-22T19:36:42.181Z,27.27
2023-02-22T19:39:09.741Z,26.00
2023-02-22T19:41:38.212Z,25.60
2023-02-22T19:44:06.451Z,24.05
2023-02-22T19:46:36.374Z,24.73
2023-02-22T19:49:04.920Z,26.25
2023-02-22T19:51:33.780Z,24.38
2023-02-22T19:54:05.629Z,23.40
2023-02-22T19:56:35.425Z,22.17
2023-02-22T19:59:21.314Z,23.80
2023-02-22T20:01:49.304Z,28.13
2023-02-22T20:04:21.683Z,30.83
2023-02-22T20:06:55.463Z,29.58
2023-02-22T20:09:36.365Z,24.05
2023-02-22T20:12:05.452Z,25.75
2023-02-22T20:14:34.034Z,24.95
2023-02-22T20:17:02.398Z,24.95
2023-02-22T20:19:29.889Z,30.75
2023-02-22T20:21:57.804Z,31.80
2023-02-22T20:24:25.806Z,38.00
2023-02-22T20:26:56.867Z,36.97
2023-02-22T20:29:31.827Z,35.95
2023-02-22T20:32:01.628Z,35.92
2023-02-22T20:34:33.726Z,28.75
2023-02-22T20:37:02.295Z,29.07
2023-02-22T20:39:30.012Z,28.27
2023-02-22T20:42:00.457Z,29.00
2023-02-22T20:44:27.596Z,27.25
2023-02-22T20:46:54.633Z,26.42
2023-02-22T20:49:22.159Z,25.85
2023-02-22T20:51:49.747Z,24.30
2023-02-22T20:54:17.946Z,24.20
2023-02-22T20:56:47.013Z,23.85
2023-02-22T20:59:17.665Z,22.15
2023-02-22T21:01:47.491Z,25.92
2023-02-22T21:04:14.860Z,26.02
2023-02-22T21:06:43.103Z,27.27
2023-02-22T21:09:17.570Z,29.58
2023-02-22T21:11:45.651Z,26.02
2023-02-22T21:14:18.572Z,30.48
2023-02-22T21:19:26.245Z,26.02
2023-02-22T21:21:55.669Z,33.40
2023-02-22T21:24:25.229Z,36.03
2023-02-22T21:26:53.014Z,30.17
2023-02-22T21:29:20.351Z,31.25
2023-02-22T21:31:47.984Z,31.50
2023-02-22T21:34:17.749Z,28.13
2023-02-22T21:36:46.102Z,26.52
2023-02-22T21:39:22.578Z,26.80
2023-02-22T21:41:52.194Z,27.25
2023-02-22T21:44:20.956Z,27.63
2023-02-22T21:46:49.807Z,27.92
2023-02-22T21:49:18.287Z,28.67
2023-02-22T21:51:45.682Z,26.55
2023-02-22T21:54:13.050Z,27.13
2023-02-22T21:56:43.128Z,29.60
2023-02-22T21:59:20.221Z,25.98
2023-02-22T22:01:56.200Z,25.13
2023-02-22T22:04:30.379Z,24.30
2023-02-22T22:07:00.422Z,28.42
2023-02-22T22:09:33.495Z,24.77
2023-02-22T22:12:05.275Z,21.48
2023-02-22T22:14:34.768Z,24.75
2023-02-22T22:17:05.459Z,22.63
2023-02-22T22:19:39.325Z,23.42
2023-02-22T22:22:08.079Z,23.27
2023-02-22T22:24:35.467Z,20.80
2023-02-22T22:27:06.426Z,24.25
2023-02-22T22:29:34.509Z,20.83
2023-02-22T22:32:02.875Z,24.42
2023-02-22T22:34:30.210Z,23.85
2023-02-22T22:36:58.148Z,21.75
2023-02-22T22:39:26.906Z,21.38
2023-02-22T22:41:55.016Z,22.52
2023-02-22T22:44:29.919Z,21.92
2023-02-22T22:46:56.888Z,20.20
2023-02-22T22:49:25.593Z,23.17
2023-02-22T22:51:53.883Z,23.48
2023-02-22T22:54:21.263Z,22.95
2023-02-22T22:56:48.235Z,21.35
2023-02-22T22:59:15.491Z,20.90
2023-02-22T23:01:45.048Z,20.92
2023-02-22T23:04:18.734Z,19.80
2023-02-22T23:06:51.970Z,18.27
2023-02-22T23:09:21.979Z,19.95
2023-02-22T23:24:46.402Z,29.40
2023-02-22T23:27:13.533Z,39.17
2023-02-22T23:29:42.855Z,33.83
2023-02-22T23:32:10.168Z,30.77
2023-02-22T23:34:41.118Z,24.60
2023-02-22T23:37:10.767Z,25.75
2023-02-22T23:39:38.463Z,22.90
2023-02-22T23:42:08.677Z,23.52
2023-02-22T23:44:35.991Z,24.92
2023-02-22T23:47:03.855Z,20.33
2023-02-22T23:49:35.583Z,22.02
2023-02-22T23:52:03.906Z,24.25
2023-02-22T23:54:40.252Z,21.05
2023-02-22T23:57:08.801Z,21.90
2023-02-22T23:59:36.557Z,21.38
